sensor_id;sensor_type;location;lat;lon;timestamp;P1;durP1;ratioP1;P2;durP2;ratioP2
48765;SDS011;65794;51.836;5.002;2023-11-21T00:01:06;33.65;;;9.20;;
48765;SDS011;65794;51.836;5.002;2023-11-21T00:03:38;40.88;;;10.20;;
48765;SDS011;65794;51.836;5.002;2023-11-21T00:06:05;34.58;;;7.93;;
48765;SDS011;65794;51.836;5.002;2023-11-21T00:08:35;29.60;;;8.57;;
48765;SDS011;65794;51.836;5.002;2023-11-21T00:11:02;23.20;;;7.47;;
48765;SDS011;65794;51.836;5.002;2023-11-21T00:13:32;34.20;;;9.82;;
48765;SDS011;65794;51.836;5.002;2023-11-21T00:15:58;29.58;;;8.68;;
48765;SDS011;65794;51.836;5.002;2023-11-21T00:18:25;29.60;;;8.80;;
48765;SDS011;65794;51.836;5.002;2023-11-21T00:20:52;37.13;;;9.32;;
48765;SDS011;65794;51.836;5.002;2023-11-21T00:23:18;34.50;;;9.00;;
48765;SDS011;65794;51.836;5.002;2023-11-21T00:25:45;34.00;;;9.88;;
48765;SDS011;65794;51.836;5.002;2023-11-21T00:28:11;33.15;;;8.20;;
48765;SDS011;65794;51.836;5.002;2023-11-21T00:30:38;40.28;;;9.98;;
48765;SDS011;65794;51.836;5.002;2023-11-21T00:33:05;43.92;;;8.43;;
48765;SDS011;65794;51.836;5.002;2023-11-21T00:35:32;39.75;;;8.40;;
48765;SDS011;65794;51.836;5.002;2023-11-21T00:37:58;39.13;;;8.30;;
48765;SDS011;65794;51.836;5.002;2023-11-21T00:40:25;32.03;;;11.15;;
48765;SDS011;65794;51.836;5.002;2023-11-21T00:42:52;25.73;;;8.38;;
48765;SDS011;65794;51.836;5.002;2023-11-21T00:45:18;33.70;;;8.93;;
48765;SDS011;65794;51.836;5.002;2023-11-21T00:47:45;40.08;;;10.20;;
48765;SDS011;65794;51.836;5.002;2023-11-21T00:50:12;47.85;;;10.40;;
48765;SDS011;65794;51.836;5.002;2023-11-21T00:52:39;32.47;;;8.93;;
48765;SDS011;65794;51.836;5.002;2023-11-21T00:55:05;37.88;;;10.18;;
48765;SDS011;65794;51.836;5.002;2023-11-21T00:57:34;34.67;;;9.43;;
48765;SDS011;65794;51.836;5.002;2023-11-21T01:00:01;33.15;;;10.35;;
48765;SDS011;65794;51.836;5.002;2023-11-21T01:02:28;33.47;;;10.15;;
48765;SDS011;65794;51.836;5.002;2023-11-21T01:04:55;40.65;;;8.07;;
48765;SDS011;65794;51.836;5.002;2023-11-21T01:07:22;33.65;;;9.85;;
48765;SDS011;65794;51.836;5.002;2023-11-21T01:09:49;34.30;;;8.25;;
48765;SDS011;65794;51.836;5.002;2023-11-21T01:12:16;42.50;;;9.55;;
48765;SDS011;65794;51.836;5.002;2023-11-21T01:14:44;41.13;;;9.95;;
48765;SDS011;65794;51.836;5.002;2023-11-21T01:17:11;43.45;;;10.27;;
48765;SDS011;65794;51.836;5.002;2023-11-21T01:19:38;44.03;;;10.27;;
48765;SDS011;65794;51.836;5.002;2023-11-21T01:22:05;46.90;;;10.05;;
48765;SDS011;65794;51.836;5.002;2023-11-21T01:24:32;35.67;;;9.05;;
48765;SDS011;65794;51.836;5.002;2023-11-21T01:26:58;46.90;;;9.65;;
48765;SDS011;65794;51.836;5.002;2023-11-21T01:29:25;29.80;;;8.20;;
48765;SDS011;65794;51.836;5.002;2023-11-21T01:31:51;33.80;;;7.32;;
48765;SDS011;65794;51.836;5.002;2023-11-21T01:34:18;30.88;;;7.75;;
48765;SDS011;65794;51.836;5.002;2023-11-21T01:36:45;34.70;;;9.25;;
48765;SDS011;65794;51.836;5.002;2023-11-21T01:39:12;33.40;;;8.63;;
48765;SDS011;65794;51.836;5.002;2023-11-21T01:41:42;27.70;;;8.70;;
48765;SDS011;65794;51.836;5.002;2023-11-21T01:44:10;33.40;;;8.70;;
48765;SDS011;65794;51.836;5.002;2023-11-21T01:46:37;32.38;;;7.95;;
48765;SDS011;65794;51.836;5.002;2023-11-21T01:49:04;24.15;;;8.00;;
48765;SDS011;65794;51.836;5.002;2023-11-21T01:51:32;25.80;;;8.68;;
48765;SDS011;65794;51.836;5.002;2023-11-21T01:54:01;25.90;;;8.02;;
48765;SDS011;65794;51.836;5.002;2023-11-21T01:56:31;32.42;;;10.73;;
48765;SDS011;65794;51.836;5.002;2023-11-21T01:58:58;31.65;;;9.50;;
48765;SDS011;65794;51.836;5.002;2023-11-21T02:01:25;34.10;;;10.50;;
48765;SDS011;65794;51.836;5.002;2023-11-21T02:03:52;30.38;;;10.02;;
48765;SDS011;65794;51.836;5.002;2023-11-21T02:06:19;33.85;;;9.57;;
48765;SDS011;65794;51.836;5.002;2023-11-21T02:08:46;31.05;;;10.63;;
48765;SDS011;65794;51.836;5.002;2023-11-21T02:11:12;37.22;;;11.43;;
48765;SDS011;65794;51.836;5.002;2023-11-21T02:13:39;34.35;;;10.88;;
48765;SDS011;65794;51.836;5.002;2023-11-21T02:16:13;36.85;;;11.80;;
48765;SDS011;65794;51.836;5.002;2023-11-21T02:18:40;34.60;;;11.43;;
48765;SDS011;65794;51.836;5.002;2023-11-21T02:21:08;39.78;;;12.40;;
48765;SDS011;65794;51.836;5.002;2023-11-21T02:23:36;50.28;;;13.77;;
48765;SDS011;65794;51.836;5.002;2023-11-21T02:26:03;42.42;;;12.65;;
48765;SDS011;65794;51.836;5.002;2023-11-21T02:28:30;36.92;;;11.10;;
48765;SDS011;65794;51.836;5.002;2023-11-21T02:30:57;50.30;;;13.35;;
48765;SDS011;65794;51.836;5.002;2023-11-21T02:33:25;36.08;;;11.77;;
48765;SDS011;65794;51.836;5.002;2023-11-21T02:35:52;52.08;;;11.95;;
48765;SDS011;65794;51.836;5.002;2023-11-21T02:38:21;44.15;;;12.63;;
48765;SDS011;65794;51.836;5.002;2023-11-21T02:40:48;34.13;;;10.88;;
48765;SDS011;65794;51.836;5.002;2023-11-21T02:43:15;38.22;;;12.55;;
48765;SDS011;65794;51.836;5.002;2023-11-21T02:45:42;35.22;;;11.30;;
48765;SDS011;65794;51.836;5.002;2023-11-21T02:48:09;31.02;;;10.07;;
48765;SDS011;65794;51.836;5.002;2023-11-21T02:50:36;31.95;;;9.95;;
48765;SDS011;65794;51.836;5.002;2023-11-21T02:53:04;42.63;;;12.27;;
48765;SDS011;65794;51.836;5.002;2023-11-21T02:55:32;31.38;;;10.73;;
48765;SDS011;65794;51.836;5.002;2023-11-21T02:58:02;39.90;;;12.10;;
48765;SDS011;65794;51.836;5.002;2023-11-21T03:00:30;33.90;;;10.07;;
48765;SDS011;65794;51.836;5.002;2023-11-21T03:02:57;34.88;;;12.15;;
48765;SDS011;65794;51.836;5.002;2023-11-21T03:05:25;29.10;;;9.13;;
48765;SDS011;65794;51.836;5.002;2023-11-21T03:07:51;32.83;;;9.95;;
48765;SDS011;65794;51.836;5.002;2023-11-21T03:10:18;25.52;;;9.80;;
48765;SDS011;65794;51.836;5.002;2023-11-21T03:12:46;31.13;;;9.75;;
48765;SDS011;65794;51.836;5.002;2023-11-21T03:15:12;37.05;;;12.27;;
48765;SDS011;65794;51.836;5.002;2023-11-21T03:17:39;24.88;;;9.27;;
48765;SDS011;65794;51.836;5.002;2023-11-21T03:20:06;34.30;;;11.48;;
48765;SDS011;65794;51.836;5.002;2023-11-21T03:22:37;32.17;;;11.32;;
48765;SDS011;65794;51.836;5.002;2023-11-21T03:25:05;33.45;;;11.73;;
48765;SDS011;65794;51.836;5.002;2023-11-21T03:27:32;39.10;;;12.63;;
48765;SDS011;65794;51.836;5.002;2023-11-21T03:29:59;39.70;;;13.52;;
48765;SDS011;65794;51.836;5.002;2023-11-21T03:32:26;40.85;;;12.75;;
48765;SDS011;65794;51.836;5.002;2023-11-21T03:34:54;34.58;;;11.85;;
48765;SDS011;65794;51.836;5.002;2023-11-21T03:37:22;43.30;;;13.32;;
48765;SDS011;65794;51.836;5.002;2023-11-21T03:39:48;45.70;;;14.27;;
48765;SDS011;65794;51.836;5.002;2023-11-21T03:42:15;39.90;;;12.80;;
48765;SDS011;65794;51.836;5.002;2023-11-21T03:44:42;33.08;;;12.15;;
48765;SDS011;65794;51.836;5.002;2023-11-21T03:47:09;30.48;;;10.50;;
48765;SDS011;65794;51.836;5.002;2023-11-21T03:49:35;29.98;;;12.15;;
48765;SDS011;65794;51.836;5.002;2023-11-21T03:52:02;40.83;;;12.82;;
48765;SDS011;65794;51.836;5.002;2023-11-21T03:54:31;34.38;;;10.80;;
48765;SDS011;65794;51.836;5.002;2023-11-21T03:56:58;35.58;;;10.68;;
48765;SDS011;65794;51.836;5.002;2023-11-21T03:59:24;40.50;;;13.88;;
48765;SDS011;65794;51.836;5.002;2023-11-21T04:01:51;38.53;;;10.00;;
48765;SDS011;65794;51.836;5.002;2023-11-21T04:04:17;32.05;;;12.68;;
48765;SDS011;65794;51.836;5.002;2023-11-21T04:06:44;39.35;;;13.80;;
48765;SDS011;65794;51.836;5.002;2023-11-21T04:09:11;39.78;;;13.45;;
48765;SDS011;65794;51.836;5.002;2023-11-21T04:11:39;38.90;;;13.50;;
48765;SDS011;65794;51.836;5.002;2023-11-21T04:14:05;47.88;;;14.18;;
48765;SDS011;65794;51.836;5.002;2023-11-21T04:16:32;41.05;;;11.38;;
48765;SDS011;65794;51.836;5.002;2023-11-21T04:19:00;47.40;;;13.40;;
48765;SDS011;65794;51.836;5.002;2023-11-21T04:21:26;34.75;;;10.30;;
48765;SDS011;65794;51.836;5.002;2023-11-21T04:23:53;28.80;;;10.10;;
48765;SDS011;65794;51.836;5.002;2023-11-21T04:26:20;27.48;;;9.70;;
48765;SDS011;65794;51.836;5.002;2023-11-21T04:28:46;34.65;;;12.88;;
48765;SDS011;65794;51.836;5.002;2023-11-21T04:31:13;40.72;;;13.80;;
48765;SDS011;65794;51.836;5.002;2023-11-21T04:33:40;40.65;;;12.68;;
48765;SDS011;65794;51.836;5.002;2023-11-21T04:36:07;40.15;;;12.93;;
48765;SDS011;65794;51.836;5.002;2023-11-21T04:38:33;48.67;;;13.60;;
48765;SDS011;65794;51.836;5.002;2023-11-21T04:41:00;42.08;;;12.98;;
48765;SDS011;65794;51.836;5.002;2023-11-21T04:43:29;47.08;;;13.95;;
48765;SDS011;65794;51.836;5.002;2023-11-21T04:45:56;45.85;;;13.45;;
48765;SDS011;65794;51.836;5.002;2023-11-21T04:48:23;50.97;;;13.98;;
48765;SDS011;65794;51.836;5.002;2023-11-21T04:50:49;52.75;;;14.18;;
48765;SDS011;65794;51.836;5.002;2023-11-21T04:53:17;42.08;;;13.32;;
48765;SDS011;65794;51.836;5.002;2023-11-21T04:55:43;36.95;;;11.88;;
48765;SDS011;65794;51.836;5.002;2023-11-21T04:58:10;39.15;;;12.70;;
48765;SDS011;65794;51.836;5.002;2023-11-21T05:00:38;47.15;;;14.18;;
48765;SDS011;65794;51.836;5.002;2023-11-21T05:03:06;33.58;;;11.88;;
48765;SDS011;65794;51.836;5.002;2023-11-21T05:05:33;41.75;;;12.48;;
48765;SDS011;65794;51.836;5.002;2023-11-21T05:08:00;39.35;;;10.80;;
48765;SDS011;65794;51.836;5.002;2023-11-21T05:10:28;37.80;;;11.40;;
48765;SDS011;65794;51.836;5.002;2023-11-21T05:12:55;47.85;;;13.90;;
48765;SDS011;65794;51.836;5.002;2023-11-21T05:15:22;37.03;;;11.27;;
48765;SDS011;65794;51.836;5.002;2023-11-21T05:17:50;45.30;;;12.43;;
48765;SDS011;65794;51.836;5.002;2023-11-21T05:20:18;35.10;;;10.80;;
48765;SDS011;65794;51.836;5.002;2023-11-21T05:22:48;44.35;;;12.80;;
48765;SDS011;65794;51.836;5.002;2023-11-21T05:25:15;43.78;;;12.55;;
48765;SDS011;65794;51.836;5.002;2023-11-21T05:27:48;52.05;;;13.80;;
48765;SDS011;65794;51.836;5.002;2023-11-21T05:30:14;41.03;;;12.32;;
48765;SDS011;65794;51.836;5.002;2023-11-21T05:32:41;43.45;;;12.68;;
48765;SDS011;65794;51.836;5.002;2023-11-21T05:35:09;34.97;;;10.48;;
48765;SDS011;65794;51.836;5.002;2023-11-21T05:37:38;52.30;;;12.57;;
48765;SDS011;65794;51.836;5.002;2023-11-21T05:40:06;39.35;;;12.75;;
48765;SDS011;65794;51.836;5.002;2023-11-21T05:42:33;53.15;;;14.23;;
48765;SDS011;65794;51.836;5.002;2023-11-21T05:45:00;49.95;;;14.80;;
48765;SDS011;65794;51.836;5.002;2023-11-21T05:47:36;43.53;;;13.02;;
48765;SDS011;65794;51.836;5.002;2023-11-21T05:50:04;44.42;;;12.82;;
48765;SDS011;65794;51.836;5.002;2023-11-21T05:52:32;42.45;;;11.38;;
48765;SDS011;65794;51.836;5.002;2023-11-21T05:55:01;46.05;;;13.10;;
48765;SDS011;65794;51.836;5.002;2023-11-21T05:57:28;33.08;;;10.60;;
48765;SDS011;65794;51.836;5.002;2023-11-21T05:59:55;41.28;;;11.77;;
48765;SDS011;65794;51.836;5.002;2023-11-21T06:02:21;45.60;;;12.65;;
48765;SDS011;65794;51.836;5.002;2023-11-21T06:04:48;53.42;;;12.20;;
48765;SDS011;65794;51.836;5.002;2023-11-21T06:07:14;51.45;;;11.52;;
48765;SDS011;65794;51.836;5.002;2023-11-21T06:09:41;60.80;;;10.35;;
48765;SDS011;65794;51.836;5.002;2023-11-21T06:12:08;49.50;;;11.60;;
48765;SDS011;65794;51.836;5.002;2023-11-21T06:14:34;41.33;;;8.77;;
48765;SDS011;65794;51.836;5.002;2023-11-21T06:17:01;31.55;;;8.25;;
48765;SDS011;65794;51.836;5.002;2023-11-21T06:19:28;43.92;;;9.98;;
48765;SDS011;65794;51.836;5.002;2023-11-21T06:21:55;55.15;;;10.80;;
48765;SDS011;65794;51.836;5.002;2023-11-21T06:24:22;40.95;;;10.70;;
48765;SDS011;65794;51.836;5.002;2023-11-21T06:26:49;48.00;;;11.05;;
48765;SDS011;65794;51.836;5.002;2023-11-21T06:29:16;56.10;;;11.07;;
48765;SDS011;65794;51.836;5.002;2023-11-21T06:31:42;52.30;;;10.93;;
48765;SDS011;65794;51.836;5.002;2023-11-21T06:34:10;49.92;;;11.00;;
48765;SDS011;65794;51.836;5.002;2023-11-21T06:36:37;46.65;;;10.55;;
48765;SDS011;65794;51.836;5.002;2023-11-21T06:39:03;41.83;;;10.07;;
48765;SDS011;65794;51.836;5.002;2023-11-21T06:41:35;36.00;;;9.55;;
48765;SDS011;65794;51.836;5.002;2023-11-21T06:44:01;36.97;;;9.82;;
48765;SDS011;65794;51.836;5.002;2023-11-21T06:46:29;33.75;;;9.27;;
48765;SDS011;65794;51.836;5.002;2023-11-21T06:48:56;34.15;;;9.60;;
48765;SDS011;65794;51.836;5.002;2023-11-21T06:51:22;43.78;;;10.05;;
48765;SDS011;65794;51.836;5.002;2023-11-21T06:53:49;41.95;;;10.15;;
48765;SDS011;65794;51.836;5.002;2023-11-21T06:56:18;47.03;;;10.75;;
48765;SDS011;65794;51.836;5.002;2023-11-21T06:58:45;35.05;;;9.88;;
48765;SDS011;65794;51.836;5.002;2023-11-21T07:01:13;46.65;;;11.00;;
48765;SDS011;65794;51.836;5.002;2023-11-21T07:03:40;38.90;;;9.43;;
48765;SDS011;65794;51.836;5.002;2023-11-21T07:06:08;37.35;;;9.05;;
48765;SDS011;65794;51.836;5.002;2023-11-21T07:08:34;33.22;;;8.25;;
48765;SDS011;65794;51.836;5.002;2023-11-21T07:11:01;32.45;;;8.00;;
48765;SDS011;65794;51.836;5.002;2023-11-21T07:13:30;37.38;;;10.15;;
48765;SDS011;65794;51.836;5.002;2023-11-21T07:15:59;37.85;;;10.18;;
48765;SDS011;65794;51.836;5.002;2023-11-21T07:18:26;42.42;;;11.00;;
48765;SDS011;65794;51.836;5.002;2023-11-21T07:20:53;40.90;;;10.95;;
48765;SDS011;65794;51.836;5.002;2023-11-21T07:23:19;37.45;;;9.23;;
48765;SDS011;65794;51.836;5.002;2023-11-21T07:25:47;43.38;;;10.48;;
48765;SDS011;65794;51.836;5.002;2023-11-21T07:28:14;34.35;;;8.82;;
48765;SDS011;65794;51.836;5.002;2023-11-21T07:30:41;40.85;;;10.63;;
48765;SDS011;65794;51.836;5.002;2023-11-21T07:33:09;36.92;;;10.55;;
48765;SDS011;65794;51.836;5.002;2023-11-21T07:35:36;43.83;;;10.38;;
48765;SDS011;65794;51.836;5.002;2023-11-21T07:38:03;34.78;;;8.63;;
48765;SDS011;65794;51.836;5.002;2023-11-21T07:40:30;26.85;;;9.63;;
48765;SDS011;65794;51.836;5.002;2023-11-21T07:42:57;28.73;;;9.15;;
48765;SDS011;65794;51.836;5.002;2023-11-21T07:45:24;28.30;;;8.32;;
48765;SDS011;65794;51.836;5.002;2023-11-21T07:47:54;28.80;;;8.68;;
48765;SDS011;65794;51.836;5.002;2023-11-21T07:50:22;29.85;;;9.32;;
48765;SDS011;65794;51.836;5.002;2023-11-21T07:52:49;31.73;;;9.70;;
48765;SDS011;65794;51.836;5.002;2023-11-21T07:55:16;24.73;;;9.00;;
48765;SDS011;65794;51.836;5.002;2023-11-21T07:57:42;34.60;;;9.82;;
48765;SDS011;65794;51.836;5.002;2023-11-21T08:00:09;38.22;;;9.40;;
48765;SDS011;65794;51.836;5.002;2023-11-21T08:02:39;26.23;;;8.95;;
48765;SDS011;65794;51.836;5.002;2023-11-21T08:05:09;29.80;;;8.43;;
48765;SDS011;65794;51.836;5.002;2023-11-21T08:07:49;24.27;;;8.00;;
48765;SDS011;65794;51.836;5.002;2023-11-21T08:10:16;27.98;;;8.18;;
48765;SDS011;65794;51.836;5.002;2023-11-21T08:12:44;30.40;;;8.25;;
48765;SDS011;65794;51.836;5.002;2023-11-21T08:15:11;31.48;;;8.95;;
48765;SDS011;65794;51.836;5.002;2023-11-21T08:17:37;23.15;;;7.35;;
48765;SDS011;65794;51.836;5.002;2023-11-21T08:20:05;20.17;;;7.47;;
48765;SDS011;65794;51.836;5.002;2023-11-21T08:22:35;17.75;;;6.05;;
48765;SDS011;65794;51.836;5.002;2023-11-21T08:25:02;14.82;;;5.05;;
48765;SDS011;65794;51.836;5.002;2023-11-21T08:27:31;21.77;;;7.72;;
48765;SDS011;65794;51.836;5.002;2023-11-21T08:29:57;20.50;;;7.00;;
48765;SDS011;65794;51.836;5.002;2023-11-21T08:32:25;20.92;;;6.07;;
48765;SDS011;65794;51.836;5.002;2023-11-21T08:34:51;25.45;;;7.63;;
48765;SDS011;65794;51.836;5.002;2023-11-21T08:37:19;31.92;;;7.63;;
48765;SDS011;65794;51.836;5.002;2023-11-21T08:39:46;16.60;;;6.28;;
48765;SDS011;65794;51.836;5.002;2023-11-21T08:42:14;20.75;;;7.55;;
48765;SDS011;65794;51.836;5.002;2023-11-21T08:44:41;20.67;;;6.85;;
48765;SDS011;65794;51.836;5.002;2023-11-21T08:47:08;20.33;;;5.93;;
48765;SDS011;65794;51.836;5.002;2023-11-21T08:49:34;22.77;;;6.97;;
48765;SDS011;65794;51.836;5.002;2023-11-21T08:52:01;18.83;;;6.93;;
48765;SDS011;65794;51.836;5.002;2023-11-21T08:54:28;21.02;;;6.25;;
48765;SDS011;65794;51.836;5.002;2023-11-21T08:56:54;19.38;;;6.70;;
48765;SDS011;65794;51.836;5.002;2023-11-21T08:59:21;27.38;;;6.65;;
48765;SDS011;65794;51.836;5.002;2023-11-21T09:01:47;20.13;;;6.65;;
48765;SDS011;65794;51.836;5.002;2023-11-21T09:04:14;29.05;;;6.97;;
48765;SDS011;65794;51.836;5.002;2023-11-21T09:06:41;32.15;;;8.02;;
48765;SDS011;65794;51.836;5.002;2023-11-21T09:09:07;21.27;;;7.13;;
48765;SDS011;65794;51.836;5.002;2023-11-21T09:11:36;25.40;;;6.85;;
48765;SDS011;65794;51.836;5.002;2023-11-21T09:14:03;22.45;;;6.80;;
48765;SDS011;65794;51.836;5.002;2023-11-21T09:16:30;18.85;;;6.88;;
48765;SDS011;65794;51.836;5.002;2023-11-21T09:18:58;21.80;;;6.72;;
48765;SDS011;65794;51.836;5.002;2023-11-21T09:21:28;21.85;;;6.65;;
48765;SDS011;65794;51.836;5.002;2023-11-21T09:23:55;20.92;;;6.18;;
48765;SDS011;65794;51.836;5.002;2023-11-21T09:26:21;22.70;;;5.90;;
48765;SDS011;65794;51.836;5.002;2023-11-21T09:28:48;21.13;;;5.50;;
48765;SDS011;65794;51.836;5.002;2023-11-21T09:31:15;22.58;;;5.50;;
48765;SDS011;65794;51.836;5.002;2023-11-21T09:33:43;14.40;;;4.65;;
48765;SDS011;65794;51.836;5.002;2023-11-21T09:36:12;14.32;;;4.60;;
48765;SDS011;65794;51.836;5.002;2023-11-21T09:38:42;17.83;;;5.05;;
48765;SDS011;65794;51.836;5.002;2023-11-21T09:41:11;12.23;;;4.60;;
48765;SDS011;65794;51.836;5.002;2023-11-21T09:43:44;14.93;;;4.38;;
48765;SDS011;65794;51.836;5.002;2023-11-21T09:46:12;18.25;;;4.85;;
48765;SDS011;65794;51.836;5.002;2023-11-21T09:48:48;12.13;;;4.50;;
48765;SDS011;65794;51.836;5.002;2023-11-21T09:51:18;10.27;;;4.35;;
48765;SDS011;65794;51.836;5.002;2023-11-21T09:53:46;11.65;;;4.53;;
48765;SDS011;65794;51.836;5.002;2023-11-21T09:56:15;17.30;;;4.35;;
48765;SDS011;65794;51.836;5.002;2023-11-21T09:58:45;17.95;;;4.43;;
48765;SDS011;65794;51.836;5.002;2023-11-21T10:01:14;12.10;;;4.10;;
48765;SDS011;65794;51.836;5.002;2023-11-21T10:03:42;14.52;;;5.03;;
48765;SDS011;65794;51.836;5.002;2023-11-21T10:06:09;11.82;;;4.35;;
48765;SDS011;65794;51.836;5.002;2023-11-21T10:08:36;14.27;;;4.70;;
48765;SDS011;65794;51.836;5.002;2023-11-21T10:11:15;10.50;;;4.50;;
48765;SDS011;65794;51.836;5.002;2023-11-21T10:13:44;13.90;;;4.20;;
48765;SDS011;65794;51.836;5.002;2023-11-21T10:16:13;15.25;;;4.78;;
48765;SDS011;65794;51.836;5.002;2023-11-21T10:18:42;14.80;;;4.95;;
48765;SDS011;65794;51.836;5.002;2023-11-21T10:21:11;10.70;;;4.30;;
48765;SDS011;65794;51.836;5.002;2023-11-21T10:23:38;14.43;;;5.15;;
48765;SDS011;65794;51.836;5.002;2023-11-21T10:26:04;10.57;;;4.40;;
48765;SDS011;65794;51.836;5.002;2023-11-21T10:28:57;13.35;;;5.25;;
48765;SDS011;65794;51.836;5.002;2023-11-21T10:31:27;17.23;;;5.43;;
48765;SDS011;65794;51.836;5.002;2023-11-21T10:33:53;16.92;;;5.28;;
48765;SDS011;65794;51.836;5.002;2023-11-21T10:36:26;12.63;;;5.10;;
48765;SDS011;65794;51.836;5.002;2023-11-21T10:38:56;14.57;;;5.65;;
48765;SDS011;65794;51.836;5.002;2023-11-21T10:41:23;16.73;;;6.18;;
48765;SDS011;65794;51.836;5.002;2023-11-21T10:43:52;14.65;;;5.55;;
48765;SDS011;65794;51.836;5.002;2023-11-21T10:46:19;15.98;;;6.03;;
48765;SDS011;65794;51.836;5.002;2023-11-21T10:48:50;14.63;;;5.97;;
48765;SDS011;65794;51.836;5.002;2023-11-21T10:51:18;13.38;;;5.85;;
48765;SDS011;65794;51.836;5.002;2023-11-21T10:53:45;13.85;;;6.00;;
48765;SDS011;65794;51.836;5.002;2023-11-21T10:56:14;13.77;;;5.97;;
48765;SDS011;65794;51.836;5.002;2023-11-21T10:58:46;14.38;;;5.95;;
48765;SDS011;65794;51.836;5.002;2023-11-21T11:01:12;14.52;;;5.95;;
48765;SDS011;65794;51.836;5.002;2023-11-21T11:03:41;14.77;;;5.85;;
48765;SDS011;65794;51.836;5.002;2023-11-21T11:06:08;15.27;;;5.82;;
48765;SDS011;65794;51.836;5.002;2023-11-21T11:08:38;16.73;;;6.18;;
48765;SDS011;65794;51.836;5.002;2023-11-21T11:11:05;12.55;;;5.35;;
48765;SDS011;65794;51.836;5.002;2023-11-21T11:13:32;10.00;;;4.75;;
48765;SDS011;65794;51.836;5.002;2023-11-21T11:15:59;8.35;;;4.07;;
48765;SDS011;65794;51.836;5.002;2023-11-21T11:18:30;13.73;;;4.47;;
48765;SDS011;65794;51.836;5.002;2023-11-21T11:21:00;8.93;;;4.22;;
48765;SDS011;65794;51.836;5.002;2023-11-21T11:23:32;12.13;;;4.57;;
48765;SDS011;65794;51.836;5.002;2023-11-21T11:29:03;11.10;;;4.82;;
48765;SDS011;65794;51.836;5.002;2023-11-21T11:32:10;10.43;;;4.10;;
48765;SDS011;65794;51.836;5.002;2023-11-21T11:34:28;8.95;;;3.97;;
48765;SDS011;65794;51.836;5.002;2023-11-21T11:37:06;12.25;;;4.65;;
48765;SDS011;65794;51.836;5.002;2023-11-21T11:39:35;10.30;;;4.18;;
48765;SDS011;65794;51.836;5.002;2023-11-21T11:42:03;10.43;;;4.30;;
48765;SDS011;65794;51.836;5.002;2023-11-21T11:47:20;7.38;;;3.63;;
48765;SDS011;65794;51.836;5.002;2023-11-21T11:52:50;9.75;;;3.60;;
48765;SDS011;65794;51.836;5.002;2023-11-21T11:55:19;11.68;;;4.13;;
48765;SDS011;65794;51.836;5.002;2023-11-21T12:00:20;10.13;;;4.38;;
48765;SDS011;65794;51.836;5.002;2023-11-21T12:02:48;12.68;;;4.22;;
48765;SDS011;65794;51.836;5.002;2023-11-21T12:05:16;10.90;;;4.85;;
48765;SDS011;65794;51.836;5.002;2023-11-21T12:07:45;10.43;;;4.70;;
48765;SDS011;65794;51.836;5.002;2023-11-21T12:10:13;11.45;;;4.43;;
48765;SDS011;65794;51.836;5.002;2023-11-21T12:12:42;13.45;;;5.03;;
48765;SDS011;65794;51.836;5.002;2023-11-21T12:15:10;10.38;;;4.57;;
48765;SDS011;65794;51.836;5.002;2023-11-21T12:17:38;16.27;;;5.25;;
48765;SDS011;65794;51.836;5.002;2023-11-21T12:20:05;12.93;;;5.63;;
48765;SDS011;65794;51.836;5.002;2023-11-21T12:22:42;12.35;;;5.32;;
48765;SDS011;65794;51.836;5.002;2023-11-21T12:25:10;17.05;;;6.82;;
48765;SDS011;65794;51.836;5.002;2023-11-21T12:27:39;16.70;;;5.93;;
48765;SDS011;65794;51.836;5.002;2023-11-21T12:30:05;17.60;;;6.60;;
48765;SDS011;65794;51.836;5.002;2023-11-21T12:32:32;14.10;;;5.53;;
48765;SDS011;65794;51.836;5.002;2023-11-21T12:34:59;18.27;;;6.35;;
48765;SDS011;65794;51.836;5.002;2023-11-21T12:37:27;13.77;;;5.57;;
48765;SDS011;65794;51.836;5.002;2023-11-21T12:39:53;15.20;;;6.72;;
48765;SDS011;65794;51.836;5.002;2023-11-21T12:42:24;15.95;;;6.05;;
48765;SDS011;65794;51.836;5.002;2023-11-21T12:45:07;17.08;;;6.65;;
48765;SDS011;65794;51.836;5.002;2023-11-21T12:47:35;16.67;;;5.93;;
48765;SDS011;65794;51.836;5.002;2023-11-21T12:50:02;13.15;;;5.60;;
48765;SDS011;65794;51.836;5.002;2023-11-21T12:52:29;14.23;;;5.30;;
48765;SDS011;65794;51.836;5.002;2023-11-21T12:54:56;14.35;;;6.30;;
48765;SDS011;65794;51.836;5.002;2023-11-21T12:57:25;16.17;;;5.40;;
48765;SDS011;65794;51.836;5.002;2023-11-21T12:59:57;15.00;;;5.18;;
48765;SDS011;65794;51.836;5.002;2023-11-21T13:02:27;13.55;;;4.60;;
48765;SDS011;65794;51.836;5.002;2023-11-21T13:04:56;13.57;;;4.65;;
48765;SDS011;65794;51.836;5.002;2023-11-21T13:07:24;19.55;;;6.05;;
48765;SDS011;65794;51.836;5.002;2023-11-21T13:09:53;16.52;;;6.60;;
48765;SDS011;65794;51.836;5.002;2023-11-21T13:12:23;15.00;;;5.80;;
48765;SDS011;65794;51.836;5.002;2023-11-21T13:14:51;17.08;;;7.15;;
48765;SDS011;65794;51.836;5.002;2023-11-21T13:17:18;18.25;;;7.70;;
48765;SDS011;65794;51.836;5.002;2023-11-21T13:19:45;20.35;;;8.27;;
48765;SDS011;65794;51.836;5.002;2023-11-21T13:22:12;23.20;;;8.20;;
48765;SDS011;65794;51.836;5.002;2023-11-21T13:24:38;16.60;;;7.07;;
48765;SDS011;65794;51.836;5.002;2023-11-21T13:27:05;18.30;;;6.32;;
48765;SDS011;65794;51.836;5.002;2023-11-21T13:29:33;19.92;;;7.30;;
48765;SDS011;65794;51.836;5.002;2023-11-21T13:32:01;21.73;;;6.60;;
48765;SDS011;65794;51.836;5.002;2023-11-21T13:34:30;15.25;;;5.97;;
48765;SDS011;65794;51.836;5.002;2023-11-21T13:36:59;17.08;;;6.47;;
48765;SDS011;65794;51.836;5.002;2023-11-21T13:39:29;21.15;;;7.25;;
48765;SDS011;65794;51.836;5.002;2023-11-21T13:41:59;26.38;;;9.52;;
48765;SDS011;65794;51.836;5.002;2023-11-21T13:44:25;23.98;;;8.77;;
48765;SDS011;65794;51.836;5.002;2023-11-21T13:47:01;22.30;;;8.90;;
48765;SDS011;65794;51.836;5.002;2023-11-21T13:49:28;20.98;;;8.85;;
48765;SDS011;65794;51.836;5.002;2023-11-21T13:51:58;22.35;;;8.32;;
48765;SDS011;65794;51.836;5.002;2023-11-21T13:54:26;21.52;;;9.38;;
48765;SDS011;65794;51.836;5.002;2023-11-21T13:56:53;21.30;;;10.05;;
48765;SDS011;65794;51.836;5.002;2023-11-21T13:59:21;26.23;;;9.25;;
48765;SDS011;65794;51.836;5.002;2023-11-21T14:01:51;21.05;;;8.88;;
48765;SDS011;65794;51.836;5.002;2023-11-21T14:04:23;19.98;;;8.45;;
48765;SDS011;65794;51.836;5.002;2023-11-21T14:06:59;24.33;;;9.50;;
48765;SDS011;65794;51.836;5.002;2023-11-21T14:09:37;26.48;;;10.07;;
48765;SDS011;65794;51.836;5.002;2023-11-21T14:12:11;22.98;;;9.20;;
48765;SDS011;65794;51.836;5.002;2023-11-21T14:14:39;23.02;;;9.10;;
48765;SDS011;65794;51.836;5.002;2023-11-21T14:17:06;24.08;;;9.65;;
48765;SDS011;65794;51.836;5.002;2023-11-21T14:19:33;28.92;;;10.38;;
48765;SDS011;65794;51.836;5.002;2023-11-21T14:22:03;22.80;;;9.50;;
48765;SDS011;65794;51.836;5.002;2023-11-21T14:24:30;23.58;;;10.02;;
48765;SDS011;65794;51.836;5.002;2023-11-21T14:26:57;23.50;;;8.90;;
48765;SDS011;65794;51.836;5.002;2023-11-21T14:29:24;26.85;;;9.25;;
48765;SDS011;65794;51.836;5.002;2023-11-21T14:31:51;22.25;;;9.30;;
48765;SDS011;65794;51.836;5.002;2023-11-21T14:34:20;22.30;;;8.88;;
48765;SDS011;65794;51.836;5.002;2023-11-21T14:36:49;23.98;;;8.70;;
48765;SDS011;65794;51.836;5.002;2023-11-21T14:39:16;20.10;;;8.70;;
48765;SDS011;65794;51.836;5.002;2023-11-21T14:42:03;20.75;;;8.30;;
48765;SDS011;65794;51.836;5.002;2023-11-21T14:44:31;20.10;;;7.43;;
48765;SDS011;65794;51.836;5.002;2023-11-21T14:47:04;22.23;;;8.68;;